Home   Weather   Poison Springs Canyon   Past weeks
Flag for USA

Past Weather in Poison Springs Canyon, California, USA — Yesterday and Last 2 Weeks

Currently: 36 °F. Mostly cloudy. (Weather station: Susanville Municipal, USA). See more current weather

Past Weather in Poison Springs Canyon — Graph

°F

Poison Springs Canyon Temperature Yesterday

Maximum temperature yesterday: 55 °F (at 12:55 pm)
Minimum temperature yesterday: 37 °F (at 10:15 pm)
Average temperature yesterday: 45 °F

High & Low Weather Summary for the Past Weeks

 TemperatureHumidityPressure
High79 °F (Mar 28, 1:35 pm)100% (Apr 10, 5:55 am)30.38 "Hg (Apr 10, 5:55 am)
Low25 °F (Apr 3, 6:55 am)9% (Apr 6, 1:35 pm)29.68 "Hg (Apr 1, 8:35 pm)
Average52 °F54%30.04 "Hg
* Reported Mar 28 5:15 am — Apr 12 5:55 am, Poison Springs Canyon. Weather by CustomWeather, © 2026

Note: Actual official high and low records may vary slightly from our data, if they occured in-between our weather recording intervals... More about our weather records

Poison Springs Canyon Weather History for the Previous 24 Hours

Scroll right to see more
 ConditionsComfort  
Time TempWeatherWind HumidityBarometerVisibility
5:55 am
Sun, Apr 12
36 °FOvercast.7 mph87%29.72 "Hg10 mi
5:15 am36 °FOvercast.3 mph87%29.70 "Hg10 mi
4:55 am36 °FOvercast.No wind87%29.69 "Hg10 mi
4:15 am36 °FPassing clouds.3 mph87%29.70 "Hg10 mi
3:55 am36 °FOvercast.3 mph87%29.71 "Hg10 mi
3:35 am36 °FOvercast.3 mph87%29.70 "Hg10 mi
3:15 am36 °FOvercast.No wind93%29.70 "Hg10 mi
2:55 am36 °FOvercast.No wind93%29.72 "Hg10 mi
2:15 am36 °FPassing clouds.3 mph87%29.71 "Hg10 mi
1:55 am36 °FPassing clouds.3 mph87%29.70 "Hg10 mi
1:15 am37 °FPassing clouds.No wind75%29.71 "Hg10 mi
12:55 am37 °FPassing clouds.5 mph75%29.74 "Hg10 mi
12:15 am37 °FPassing clouds.10 mph81%29.74 "Hg10 mi
11:55 pm
Sat, Apr 11
37 °FPassing clouds.3 mph87%29.73 "Hg10 mi
11:35 pm37 °FMostly cloudy.7 mph87%29.74 "Hg10 mi
11:15 pm37 °FMostly cloudy.No wind87%29.75 "Hg10 mi
10:55 pm37 °FMostly cloudy.7 mph87%29.75 "Hg7 mi
10:15 pm37 °FMostly cloudy.8 mph93%29.77 "Hg4 mi
9:55 pm39 °FOvercast.17 mph87%29.76 "Hg5 mi
9:15 pm43 °FMostly cloudy.10 mph81%29.70 "Hg10 mi
8:55 pm45 °FOvercast.9 mph76%29.69 "Hg10 mi
8:35 pm43 °FMostly cloudy.8 mph81%29.70 "Hg9 mi
8:15 pm45 °FMostly cloudy.5 mph76%29.69 "Hg9 mi
7:55 pm45 °FQuite cool.9 mph76%29.69 "Hg10 mi
7:15 pm46 °FMostly cloudy.8 mph66%29.70 "Hg10 mi
6:55 pm46 °FOvercast.7 mph66%29.72 "Hg10 mi
6:15 pm45 °FPartly sunny.8 mph76%29.74 "Hg10 mi
5:55 pm46 °FPartly sunny.8 mph71%29.75 "Hg10 mi
5:15 pm46 °FOvercast.7 mph71%29.77 "Hg10 mi
4:55 pm46 °FMostly cloudy.6 mph71%29.76 "Hg10 mi
4:35 pm46 °FPartly sunny.5 mph71%29.78 "Hg10 mi
4:15 pm48 °FPartly sunny.5 mph66%29.79 "Hg10 mi
3:55 pm52 °FPartly sunny.5 mph58%29.78 "Hg10 mi
3:35 pm50 °FMostly cloudy.9 mph67%29.79 "Hg10 mi
2:55 pm52 °FMostly cloudy.6 mph62%29.80 "Hg10 mi
2:15 pm48 °FCloudy.3 mph71%29.79 "Hg7 mi
1:55 pm52 °FCloudy.8 mph58%29.80 "Hg9 mi
1:35 pm54 °FMostly cloudy.8 mph54%29.79 "Hg10 mi
12:55 pm55 °FMostly cloudy.9 mph51%29.80 "Hg10 mi
12:15 pm54 °FMostly cloudy.10 mph58%29.80 "Hg10 mi
11:55 am52 °FBroken clouds.6 mph62%29.81 "Hg10 mi
11:35 am52 °FBroken clouds.3 mph62%29.82 "Hg10 mi
11:15 am50 °FPartly sunny.3 mph67%29.83 "Hg10 mi
10:55 am50 °FPartly sunny.7 mph67%29.83 "Hg10 mi
10:35 am48 °FMostly cloudy.No wind71%29.83 "Hg10 mi
10:15 am48 °FOvercast.3 mph71%29.84 "Hg10 mi
9:55 am48 °FMostly cloudy.7 mph71%29.83 "Hg10 mi
9:35 am46 °FMore clouds than sun.6 mph76%29.84 "Hg10 mi
9:15 am46 °FOvercast.No wind82%29.84 "Hg10 mi
8:55 am46 °FMostly cloudy.No wind76%29.85 "Hg10 mi
8:35 am46 °FMore clouds than sun.No wind82%29.85 "Hg10 mi
8:15 am46 °FPartly sunny.No wind87%29.85 "Hg10 mi
7:55 am45 °FOvercast.No wind93%29.85 "Hg7 mi
7:35 am43 °FMostly cloudy.No wind93%29.84 "Hg10 mi
7:15 am43 °FOvercast.No wind93%29.84 "Hg10 mi
Weather by CustomWeather, © 2026

See weather overview